createdAt,value
2022-11-29T00:01:38.339Z,80.26
2022-11-29T00:04:06.564Z,80.63
2022-11-29T00:06:36.457Z,80.46
2022-11-29T00:09:07.315Z,80.30
2022-11-29T00:11:54.092Z,80.21
2022-11-29T00:14:23.054Z,80.50
2022-11-29T00:16:51.876Z,80.60
2022-11-29T00:19:20.394Z,80.05
2022-11-29T00:21:49.678Z,79.87
2022-11-29T00:24:17.718Z,79.69
2022-11-29T00:26:45.820Z,80.03
2022-11-29T00:29:14.337Z,79.91
2022-11-29T00:31:42.712Z,79.92
2022-11-29T00:34:12.677Z,79.83
2022-11-29T00:36:40.778Z,79.83
2022-11-29T00:39:12.057Z,79.73
2022-11-29T00:41:40.232Z,80.06
2022-11-29T00:44:08.315Z,79.83
2022-11-29T00:46:36.222Z,79.80
2022-11-29T00:49:04.704Z,79.79
2022-11-29T00:51:32.745Z,80.56
2022-11-29T00:54:00.640Z,80.68
2022-11-29T00:56:29.917Z,80.82
2022-11-29T00:58:57.934Z,80.41
2022-11-29T01:01:25.919Z,80.50
2022-11-29T01:03:53.818Z,80.75
2022-11-29T01:06:21.723Z,80.40
2022-11-29T01:08:50.769Z,80.38
2022-11-29T01:11:25.636Z,80.22
2022-11-29T01:13:57.874Z,80.31
2022-11-29T01:16:26.417Z,80.00
2022-11-29T01:18:54.437Z,79.95
2022-11-29T01:21:24.556Z,80.23
2022-11-29T01:23:54.407Z,80.21
2022-11-29T01:29:30.411Z,80.79
2022-11-29T01:31:58.409Z,80.30
2022-11-29T01:34:26.363Z,80.75
2022-11-29T01:36:54.279Z,80.99
2022-11-29T01:39:22.317Z,81.26
2022-11-29T01:41:50.388Z,80.81
2022-11-29T01:44:55.848Z,80.90
2022-11-29T01:47:25.130Z,80.76
2022-11-29T01:49:53.176Z,81.06
2022-11-29T01:52:23.690Z,80.84
2022-11-29T01:54:56.660Z,80.93
2022-11-29T01:57:25.215Z,81.07
2022-11-29T01:59:59.257Z,80.88
2022-11-29T02:02:36.631Z,81.28
2022-11-29T02:05:06.139Z,81.15
2022-11-29T02:07:34.116Z,81.06
2022-11-29T02:10:03.171Z,81.02
2022-11-29T02:12:38.112Z,81.10
2022-11-29T02:15:24.262Z,81.39
2022-11-29T02:18:04.501Z,82.75
2022-11-29T02:21:01.025Z,82.60
2022-11-29T02:24:19.628Z,81.89
2022-11-29T02:27:17.122Z,82.15
2022-11-29T02:30:21.906Z,82.51
2022-11-29T02:33:10.176Z,82.60
2022-11-29T02:35:52.386Z,82.24
2022-11-29T02:38:31.706Z,81.95
2022-11-29T02:41:20.360Z,82.50
2022-11-29T02:44:08.851Z,81.46
2022-11-29T02:47:01.016Z,81.44
2022-11-29T02:49:43.531Z,81.38
2022-11-29T02:52:18.253Z,81.11
2022-11-29T02:54:52.227Z,81.04
2022-11-29T02:57:26.270Z,81.57
2022-11-29T03:00:01.306Z,81.52
2022-11-29T03:02:36.240Z,82.00
2022-11-29T03:05:15.152Z,82.33
2022-11-29T03:07:54.870Z,82.50
2022-11-29T03:10:31.699Z,82.13
2022-11-29T03:13:01.076Z,83.40
2022-11-29T03:15:32.328Z,83.00
2022-11-29T03:18:16.789Z,83.17
2022-11-29T03:21:04.775Z,83.39
2022-11-29T03:23:38.115Z,83.38
2022-11-29T03:26:09.780Z,83.53
2022-11-29T03:28:42.499Z,83.60
2022-11-29T03:31:17.041Z,83.64
2022-11-29T03:33:54.876Z,83.26
2022-11-29T03:36:34.759Z,83.50
2022-11-29T03:39:06.836Z,83.73
2022-11-29T03:41:42.705Z,84.22
2022-11-29T03:44:16.072Z,83.68
2022-11-29T03:46:49.203Z,83.67
2022-11-29T03:49:22.722Z,83.63
2022-11-29T03:52:02.268Z,83.67
2022-11-29T03:54:39.148Z,84.18
2022-11-29T03:57:08.059Z,83.88
2022-11-29T03:59:52.442Z,83.81
2022-11-29T04:02:57.735Z,84.18
2022-11-29T04:05:49.013Z,83.61
2022-11-29T04:08:54.122Z,83.97
2022-11-29T04:11:55.863Z,83.70
2022-11-29T04:14:44.201Z,84.20
2022-11-29T04:17:55.993Z,84.17
2022-11-29T04:20:57.845Z,83.72
2022-11-29T04:23:49.177Z,83.50
2022-11-29T04:26:45.891Z,83.45
2022-11-29T04:29:25.216Z,83.58
2022-11-29T04:32:11.515Z,83.40
2022-11-29T04:35:30.561Z,83.62
2022-11-29T04:38:30.939Z,83.02
2022-11-29T04:41:25.328Z,83.02
2022-11-29T04:44:04.931Z,84.15
2022-11-29T04:46:52.499Z,83.78
2022-11-29T04:49:55.349Z,83.66
2022-11-29T04:52:37.984Z,82.54
2022-11-29T04:55:26.363Z,82.25
2022-11-29T04:58:05.559Z,81.81
2022-11-29T05:00:40.836Z,81.83
2022-11-29T05:03:15.586Z,81.75
2022-11-29T05:05:52.001Z,81.57
2022-11-29T05:08:30.515Z,81.47
2022-11-29T05:11:06.965Z,81.79
2022-11-29T05:13:49.952Z,81.73
2022-11-29T05:16:44.056Z,81.39
2022-11-29T05:19:35.618Z,81.43
2022-11-29T05:22:14.336Z,81.76
2022-11-29T05:24:53.109Z,81.59
2022-11-29T05:27:28.250Z,81.46
2022-11-29T05:30:03.699Z,81.37
2022-11-29T05:32:39.366Z,81.54
2022-11-29T05:35:41.375Z,81.82
2022-11-29T05:38:22.188Z,81.77
2022-11-29T05:41:03.238Z,81.63
2022-11-29T05:43:48.365Z,82.65
2022-11-29T05:46:23.804Z,82.57
2022-11-29T05:49:01.902Z,82.01
2022-11-29T05:51:41.197Z,81.61
2022-11-29T05:54:19.425Z,81.96
2022-11-29T05:56:54.993Z,81.92
2022-11-29T05:59:28.316Z,82.07
2022-11-29T06:02:06.465Z,82.08
2022-11-29T06:04:52.661Z,81.97
2022-11-29T06:07:27.223Z,81.88
2022-11-29T06:10:02.495Z,81.83
2022-11-29T06:12:35.015Z,81.90
2022-11-29T06:15:30.161Z,81.72
2022-11-29T06:18:19.257Z,85.04
2022-11-29T06:21:03.568Z,86.91
2022-11-29T06:23:49.481Z,87.77
2022-11-29T06:26:37.660Z,88.10
2022-11-29T06:29:22.164Z,87.60
2022-11-29T06:31:56.806Z,83.78
2022-11-29T06:34:32.566Z,82.34
2022-11-29T06:37:06.440Z,81.68
2022-11-29T06:39:34.877Z,80.82
2022-11-29T06:42:02.864Z,80.94
2022-11-29T06:44:31.267Z,80.86
2022-11-29T06:47:06.536Z,80.75
2022-11-29T06:49:44.694Z,80.95
2022-11-29T06:52:22.359Z,81.63
2022-11-29T06:55:04.436Z,81.08
2022-11-29T06:57:43.892Z,80.79
2022-11-29T07:00:17.507Z,81.12
2022-11-29T07:03:15.858Z,81.07
2022-11-29T07:05:46.586Z,80.83
2022-11-29T07:08:18.782Z,80.50
2022-11-29T07:10:49.806Z,80.46
2022-11-29T07:13:19.425Z,80.05
2022-11-29T07:15:56.809Z,81.37
2022-11-29T07:18:32.425Z,81.00
2022-11-29T07:21:09.727Z,80.41
2022-11-29T07:23:45.307Z,80.68
2022-11-29T07:26:22.632Z,80.40
2022-11-29T07:29:05.547Z,80.24
2022-11-29T07:31:46.893Z,80.96
2022-11-29T07:34:22.632Z,81.18
2022-11-29T07:37:00.333Z,81.01
2022-11-29T07:39:41.755Z,80.79
2022-11-29T07:42:17.663Z,80.54
2022-11-29T07:44:57.028Z,80.42
2022-11-29T07:47:25.138Z,80.18
2022-11-29T07:49:53.084Z,79.86
2022-11-29T07:52:22.511Z,80.40
2022-11-29T07:54:50.478Z,80.17
2022-11-29T07:57:18.495Z,80.21
2022-11-29T07:59:46.805Z,79.75
2022-11-29T08:02:14.940Z,80.20
2022-11-29T08:04:44.350Z,80.18
2022-11-29T08:07:12.834Z,80.07
2022-11-29T08:09:42.256Z,79.62
2022-11-29T08:12:10.241Z,79.61
2022-11-29T08:14:38.137Z,79.37
2022-11-29T08:17:09.194Z,79.02
2022-11-29T08:19:38.270Z,79.14
2022-11-29T08:22:06.194Z,79.18
2022-11-29T08:24:34.078Z,79.21
2022-11-29T08:27:03.328Z,79.43
2022-11-29T08:29:31.338Z,80.02
2022-11-29T08:31:59.400Z,80.18
2022-11-29T08:34:27.681Z,79.67
2022-11-29T08:36:56.709Z,79.86
2022-11-29T08:39:25.064Z,80.02
2022-11-29T08:41:53.129Z,79.49
2022-11-29T08:44:22.427Z,79.39
2022-11-29T08:47:08.036Z,79.01
2022-11-29T08:49:36.000Z,79.11
2022-11-29T08:52:21.246Z,79.01
2022-11-29T08:54:49.178Z,78.37
2022-11-29T08:57:39.112Z,78.34
2022-11-29T09:00:08.182Z,78.34
2022-11-29T09:02:37.475Z,78.28
2022-11-29T09:05:06.138Z,79.11
2022-11-29T09:07:34.344Z,79.69
2022-11-29T09:10:05.049Z,79.06
2022-11-29T09:12:33.552Z,79.38
2022-11-29T09:15:01.543Z,78.76
2022-11-29T09:17:31.032Z,79.30
2022-11-29T09:19:58.954Z,79.40
2022-11-29T09:22:26.881Z,79.33
2022-11-29T09:24:54.875Z,79.29
2022-11-29T09:27:22.842Z,79.34
2022-11-29T09:29:50.733Z,79.23
2022-11-29T09:32:18.664Z,79.88
2022-11-29T09:34:48.333Z,79.59
2022-11-29T09:37:16.372Z,78.92
2022-11-29T09:39:44.403Z,78.88
2022-11-29T09:42:28.470Z,79.33
2022-11-29T09:45:06.938Z,79.75
2022-11-29T09:48:07.916Z,79.91
2022-11-29T09:50:43.095Z,78.65
2022-11-29T09:53:29.545Z,79.08
2022-11-29T09:56:13.354Z,78.80
2022-11-29T09:58:48.224Z,78.84
2022-11-29T10:01:21.738Z,79.19
2022-11-29T10:03:53.919Z,78.70
2022-11-29T10:06:26.777Z,78.50
2022-11-29T10:09:00.591Z,77.95
2022-11-29T10:11:34.216Z,78.00
2022-11-29T10:14:11.062Z,78.34
2022-11-29T10:16:45.640Z,78.39
2022-11-29T10:19:22.292Z,78.65
2022-11-29T10:22:03.571Z,77.93
2022-11-29T10:24:33.985Z,78.33
2022-11-29T10:27:02.055Z,78.24
2022-11-29T10:29:30.047Z,77.41
2022-11-29T10:31:59.422Z,76.74
2022-11-29T10:34:30.582Z,76.92
2022-11-29T10:37:02.691Z,76.72
2022-11-29T10:39:39.591Z,76.83
2022-11-29T10:42:36.181Z,76.42
2022-11-29T10:45:06.216Z,77.53
2022-11-29T10:47:34.330Z,77.17
2022-11-29T10:50:02.223Z,76.32
2022-11-29T10:52:31.508Z,76.06
2022-11-29T10:55:01.112Z,75.91
2022-11-29T10:57:29.042Z,76.47
2022-11-29T11:00:02.375Z,76.64
2022-11-29T11:02:31.440Z,76.64
2022-11-29T11:05:00.802Z,77.03
2022-11-29T11:07:33.319Z,76.60
2022-11-29T11:10:02.689Z,76.83
2022-11-29T11:12:32.584Z,76.21
2022-11-29T11:15:27.660Z,76.71
2022-11-29T11:17:58.192Z,76.56
2022-11-29T11:20:28.526Z,76.44
2022-11-29T11:23:00.928Z,76.64
2022-11-29T11:25:31.616Z,76.84
2022-11-29T11:28:13.597Z,77.08
2022-11-29T11:30:41.584Z,77.00
2022-11-29T11:33:18.377Z,77.17
2022-11-29T11:36:01.121Z,76.66
2022-11-29T11:38:30.816Z,76.61
2022-11-29T11:41:05.828Z,76.64
2022-11-29T11:43:35.484Z,76.94
2022-11-29T11:46:03.563Z,76.77
2022-11-29T11:48:32.490Z,76.66
2022-11-29T11:51:03.216Z,76.54
2022-11-29T11:53:36.716Z,76.56
2022-11-29T11:56:07.557Z,77.04
2022-11-29T11:58:38.823Z,76.47
2022-11-29T12:01:16.769Z,76.61
2022-11-29T12:04:01.705Z,78.38
2022-11-29T12:06:42.109Z,77.96
2022-11-29T12:09:24.295Z,78.12
2022-11-29T12:12:01.350Z,77.71
2022-11-29T12:14:37.777Z,77.64
2022-11-29T12:17:20.207Z,77.45
2022-11-29T12:20:00.327Z,77.42
2022-11-29T12:22:33.919Z,77.57
2022-11-29T12:25:08.484Z,77.41
2022-11-29T12:27:36.397Z,77.57
2022-11-29T12:30:12.690Z,77.94
2022-11-29T12:32:53.986Z,77.65
2022-11-29T12:35:39.461Z,77.41
2022-11-29T12:38:18.900Z,76.84
2022-11-29T12:40:57.187Z,76.64
2022-11-29T12:43:35.207Z,76.60
2022-11-29T12:46:12.819Z,76.70
2022-11-29T12:48:50.895Z,77.46
2022-11-29T12:51:28.855Z,77.81
2022-11-29T12:54:16.407Z,78.56
2022-11-29T12:56:55.559Z,77.63
2022-11-29T12:59:38.433Z,77.41
2022-11-29T13:02:24.520Z,77.87
2022-11-29T13:05:02.764Z,77.90
2022-11-29T13:07:40.981Z,77.76
2022-11-29T13:10:30.926Z,78.02
2022-11-29T13:13:09.306Z,79.53
2022-11-29T13:15:44.371Z,79.02
2022-11-29T13:18:20.804Z,78.91
2022-11-29T13:21:02.384Z,79.28
2022-11-29T13:23:46.028Z,79.14
2022-11-29T13:26:28.221Z,79.83
2022-11-29T13:28:59.245Z,80.51
2022-11-29T13:31:27.592Z,79.66
2022-11-29T13:34:02.204Z,79.65
2022-11-29T13:36:39.070Z,79.63
2022-11-29T13:39:17.162Z,79.72
2022-11-29T13:41:51.954Z,79.56
2022-11-29T13:44:32.107Z,79.57
2022-11-29T13:47:06.753Z,79.54
2022-11-29T13:49:54.524Z,79.41
2022-11-29T13:52:41.250Z,79.52
2022-11-29T13:55:29.237Z,80.01
2022-11-29T13:58:20.173Z,80.02
2022-11-29T14:00:53.198Z,80.51
2022-11-29T14:03:30.217Z,80.81
2022-11-29T14:06:11.421Z,80.88
2022-11-29T14:11:39.024Z,81.63
2022-11-29T14:14:11.110Z,82.12
2022-11-29T14:16:47.553Z,81.80
2022-11-29T14:19:33.138Z,82.18
2022-11-29T14:22:28.810Z,82.81
2022-11-29T14:25:21.688Z,83.95
2022-11-29T14:28:01.267Z,83.72
2022-11-29T14:30:57.166Z,82.96
2022-11-29T14:33:58.602Z,84.66
2022-11-29T14:36:43.202Z,84.13
2022-11-29T14:39:31.288Z,84.14
2022-11-29T14:42:14.681Z,83.69
2022-11-29T14:44:49.601Z,83.90
2022-11-29T14:47:27.096Z,83.43
2022-11-29T14:49:58.561Z,83.07
2022-11-29T14:52:30.583Z,83.69
2022-11-29T14:55:02.051Z,83.93
2022-11-29T14:58:14.635Z,83.67
2022-11-29T15:00:54.164Z,83.36
2022-11-29T15:03:29.500Z,83.43
2022-11-29T15:06:02.134Z,83.11
2022-11-29T15:08:34.919Z,83.19
2022-11-29T15:11:08.093Z,82.89
2022-11-29T15:13:38.017Z,82.85
2022-11-29T15:16:29.998Z,82.92
2022-11-29T15:19:40.785Z,82.91
2022-11-29T15:22:16.764Z,82.50
2022-11-29T15:24:52.666Z,82.81
2022-11-29T15:27:21.369Z,83.27
2022-11-29T15:29:49.429Z,85.30
2022-11-29T15:32:24.048Z,84.38
2022-11-29T15:34:53.850Z,84.12
2022-11-29T15:37:42.786Z,84.72
2022-11-29T15:40:14.429Z,84.71
2022-11-29T15:42:44.763Z,85.15
2022-11-29T15:45:34.033Z,84.96
2022-11-29T15:48:19.916Z,84.19
2022-11-29T15:50:59.404Z,84.17
2022-11-29T15:53:33.313Z,83.94
2022-11-29T15:56:04.505Z,84.37
2022-11-29T15:58:35.039Z,84.32
2022-11-29T16:01:04.003Z,84.28
2022-11-29T16:03:35.831Z,83.52
2022-11-29T16:06:08.650Z,84.38
2022-11-29T16:08:42.630Z,85.13
2022-11-29T16:11:17.060Z,84.83
2022-11-29T16:14:02.669Z,85.20
2022-11-29T16:16:35.572Z,85.10
2022-11-29T16:19:17.380Z,85.73
2022-11-29T16:21:46.020Z,85.67
2022-11-29T16:24:21.900Z,85.33
2022-11-29T16:26:51.838Z,84.78
2022-11-29T16:29:24.680Z,84.75
2022-11-29T16:31:53.493Z,85.38
2022-11-29T16:34:27.091Z,85.45
2022-11-29T16:37:06.612Z,85.31
2022-11-29T16:39:38.605Z,84.38
2022-11-29T16:42:19.418Z,84.07
2022-11-29T16:45:23.850Z,83.19
2022-11-29T16:47:58.136Z,83.09
2022-11-29T16:50:27.905Z,83.35
2022-11-29T16:52:57.056Z,83.17
2022-11-29T16:55:26.626Z,83.73
2022-11-29T16:57:54.619Z,83.79
2022-11-29T17:00:29.687Z,83.64
2022-11-29T17:02:57.790Z,83.61
2022-11-29T17:05:26.137Z,83.50
2022-11-29T17:07:54.283Z,83.22
2022-11-29T17:10:25.626Z,82.96
2022-11-29T17:12:55.009Z,82.96
2022-11-29T17:15:22.893Z,82.95
2022-11-29T17:17:50.812Z,83.42
2022-11-29T17:20:18.784Z,83.30
2022-11-29T17:22:46.771Z,83.24
2022-11-29T17:25:14.713Z,83.46
2022-11-29T17:27:42.596Z,83.41
2022-11-29T17:30:13.090Z,83.54
2022-11-29T17:32:41.080Z,83.16
2022-11-29T17:35:09.518Z,84.27
2022-11-29T17:37:37.506Z,83.96
2022-11-29T17:40:06.137Z,83.81
2022-11-29T17:42:34.082Z,84.10
2022-11-29T17:45:02.065Z,84.18
2022-11-29T17:47:31.451Z,84.98
2022-11-29T17:49:59.408Z,85.30
2022-11-29T17:52:27.320Z,84.39
2022-11-29T17:54:55.243Z,83.91
2022-11-29T17:57:23.322Z,84.34
2022-11-29T17:59:51.316Z,84.92
2022-11-29T18:02:19.278Z,85.31
2022-11-29T18:04:48.656Z,85.34
2022-11-29T18:07:17.402Z,85.05
2022-11-29T18:09:46.954Z,84.83
2022-11-29T18:12:15.067Z,84.69
2022-11-29T18:14:43.074Z,84.97
2022-11-29T18:17:11.087Z,85.07
2022-11-29T18:19:39.063Z,84.90
2022-11-29T18:22:08.463Z,84.32
2022-11-29T18:24:36.460Z,84.00
2022-11-29T18:27:04.468Z,83.90
2022-11-29T18:29:45.672Z,84.58
2022-11-29T18:32:13.654Z,86.59
2022-11-29T18:34:41.545Z,85.73
2022-11-29T18:37:16.187Z,85.64
2022-11-29T18:39:48.649Z,85.83
2022-11-29T18:42:16.582Z,85.43
2022-11-29T18:44:44.904Z,85.55
2022-11-29T18:47:13.083Z,85.65
2022-11-29T18:49:41.204Z,85.54
2022-11-29T18:52:11.465Z,85.28
2022-11-29T18:54:39.819Z,85.22
2022-11-29T18:57:07.802Z,85.59
2022-11-29T18:59:35.759Z,84.39
2022-11-29T19:02:03.738Z,84.48
2022-11-29T19:04:31.682Z,85.28
2022-11-29T19:06:59.701Z,85.22
2022-11-29T19:09:28.981Z,84.98
2022-11-29T19:11:56.955Z,84.73
2022-11-29T19:14:24.855Z,84.39
2022-11-29T19:16:52.862Z,84.30
2022-11-29T19:19:20.764Z,86.07
2022-11-29T19:21:49.191Z,85.80
2022-11-29T19:24:18.940Z,84.85
2022-11-29T19:26:50.698Z,83.41
2022-11-29T19:29:18.810Z,83.42
2022-11-29T19:31:46.776Z,83.26
2022-11-29T19:34:14.967Z,83.24
2022-11-29T19:36:44.517Z,83.92
2022-11-29T19:39:14.581Z,83.89
2022-11-29T19:41:44.229Z,83.83
2022-11-29T19:44:13.920Z,83.50
2022-11-29T19:46:43.311Z,83.97
2022-11-29T19:49:11.534Z,84.77
2022-11-29T19:51:39.717Z,84.77
2022-11-29T19:54:09.570Z,84.13
2022-11-29T19:56:38.966Z,85.24
2022-11-29T19:59:07.836Z,84.37
2022-11-29T20:01:41.426Z,84.03
2022-11-29T20:04:11.684Z,84.43
2022-11-29T20:06:39.927Z,84.67
2022-11-29T20:09:08.013Z,83.67
2022-11-29T20:11:36.033Z,83.38
2022-11-29T20:14:05.972Z,83.41
2022-11-29T20:16:34.803Z,83.80
2022-11-29T20:19:04.084Z,84.32
2022-11-29T20:21:33.819Z,84.18
2022-11-29T20:24:03.883Z,83.98
2022-11-29T20:26:33.848Z,83.75
2022-11-29T20:29:02.910Z,83.00
2022-11-29T20:31:33.441Z,82.72
2022-11-29T20:34:01.726Z,82.24
2022-11-29T20:36:41.496Z,83.05
2022-11-29T20:39:21.137Z,83.89
2022-11-29T20:42:00.487Z,83.06
2022-11-29T20:44:37.412Z,82.52
2022-11-29T20:47:14.927Z,82.33
2022-11-29T20:49:43.226Z,82.11
2022-11-29T20:52:25.409Z,82.61
2022-11-29T20:54:53.401Z,82.87
2022-11-29T20:57:21.392Z,82.83
2022-11-29T20:59:49.317Z,83.05
2022-11-29T21:02:17.220Z,82.85
2022-11-29T21:04:45.485Z,83.56
2022-11-29T21:07:15.090Z,83.35
2022-11-29T21:09:42.996Z,83.37
2022-11-29T21:12:12.080Z,82.58
2022-11-29T21:14:40.527Z,82.99
2022-11-29T21:17:09.952Z,82.32
2022-11-29T21:19:39.724Z,82.75
2022-11-29T21:22:16.457Z,82.32
2022-11-29T21:24:54.671Z,82.12
2022-11-29T21:27:28.365Z,81.96
2022-11-29T21:29:56.952Z,81.41
2022-11-29T21:32:26.861Z,82.55
2022-11-29T21:34:54.817Z,82.28
2022-11-29T21:37:26.472Z,81.85
2022-11-29T21:39:56.426Z,82.29
2022-11-29T21:42:24.723Z,82.03
2022-11-29T21:44:52.694Z,82.23
2022-11-29T21:47:20.573Z,82.42
2022-11-29T21:49:48.500Z,82.38
2022-11-29T21:52:20.829Z,81.96
2022-11-29T21:54:50.380Z,81.49
2022-11-29T21:57:19.899Z,81.43
2022-11-29T21:59:47.822Z,81.51
2022-11-29T22:02:15.899Z,81.38
2022-11-29T22:04:43.922Z,82.13
2022-11-29T22:07:11.914Z,82.50
2022-11-29T22:09:39.856Z,83.07
2022-11-29T22:12:31.815Z,82.78
2022-11-29T22:14:57.351Z,82.31
2022-11-29T22:17:25.234Z,82.21
2022-11-29T22:19:53.182Z,81.41
2022-11-29T22:22:21.081Z,81.03
2022-11-29T22:24:49.310Z,80.97
2022-11-29T22:27:18.560Z,80.98
2022-11-29T22:29:46.521Z,80.82
2022-11-29T22:32:16.465Z,80.86
2022-11-29T22:34:44.752Z,81.99
2022-11-29T22:37:13.392Z,81.46
2022-11-29T22:39:41.308Z,81.21
2022-11-29T22:42:09.200Z,80.93
2022-11-29T22:44:37.256Z,80.99
2022-11-29T22:47:05.269Z,81.20
2022-11-29T22:49:34.626Z,81.37
2022-11-29T22:52:02.526Z,80.76
2022-11-29T22:54:30.412Z,80.97
2022-11-29T22:56:58.435Z,81.42
2022-11-29T22:59:26.317Z,81.21
2022-11-29T23:01:54.273Z,81.57
2022-11-29T23:04:22.221Z,81.60
2022-11-29T23:06:51.528Z,81.22
2022-11-29T23:09:22.550Z,81.16
2022-11-29T23:11:54.279Z,80.63
2022-11-29T23:14:23.278Z,80.65
2022-11-29T23:16:51.684Z,81.37
2022-11-29T23:19:20.131Z,81.21
2022-11-29T23:21:48.502Z,81.17
2022-11-29T23:24:17.883Z,82.03
2022-11-29T23:26:47.488Z,81.76
2022-11-29T23:29:17.576Z,81.73
2022-11-29T23:31:46.724Z,81.73
2022-11-29T23:34:14.897Z,81.94
2022-11-29T23:36:45.730Z,81.86
2022-11-29T23:39:17.731Z,81.68
2022-11-29T23:41:45.738Z,81.56
2022-11-29T23:44:13.702Z,81.59
2022-11-29T23:46:41.646Z,81.74
2022-11-29T23:49:09.598Z,81.30
2022-11-29T23:51:37.604Z,81.50
2022-11-29T23:54:05.840Z,81.34
2022-11-29T23:56:35.652Z,81.04
2022-11-29T23:59:09.560Z,80.91
